createdAt,value
2022-11-29T00:00:05.630Z,44.40
2022-11-29T00:00:37.811Z,39.70
2022-11-29T00:01:09.971Z,40.50
2022-11-29T00:01:42.352Z,40.50
2022-11-29T00:02:14.615Z,45.50
2022-11-29T00:02:54.447Z,45.00
2022-11-29T00:03:26.946Z,40.30
2022-11-29T00:03:59.033Z,36.10
2022-11-29T00:04:31.192Z,39.50
2022-11-29T00:05:03.393Z,43.70
2022-11-29T00:05:35.478Z,44.80
2022-11-29T00:06:07.613Z,40.20
2022-11-29T00:06:39.819Z,42.50
2022-11-29T00:07:11.935Z,45.90
2022-11-29T00:07:44.169Z,46.10
2022-11-29T00:08:16.269Z,45.90
2022-11-29T00:08:48.500Z,46.00
2022-11-29T00:09:20.630Z,45.30
2022-11-29T00:09:52.784Z,39.00
2022-11-29T00:10:24.940Z,42.20
2022-11-29T00:10:57.002Z,38.00
2022-11-29T00:11:29.128Z,36.10
2022-11-29T00:12:01.262Z,39.80
2022-11-29T00:12:33.492Z,39.20
2022-11-29T00:13:05.604Z,41.20
2022-11-29T00:13:37.752Z,43.00
2022-11-29T00:14:09.955Z,39.80
2022-11-29T00:14:42.447Z,40.10
2022-11-29T00:15:14.327Z,43.30
2022-11-29T00:15:46.526Z,45.90
2022-11-29T00:16:18.664Z,47.60
2022-11-29T00:16:50.775Z,48.20
2022-11-29T00:17:22.894Z,45.50
2022-11-29T00:18:02.041Z,44.20
2022-11-29T00:18:34.166Z,43.50
2022-11-29T00:19:06.303Z,42.50
2022-11-29T00:19:38.431Z,41.20
2022-11-29T00:20:10.512Z,38.90
2022-11-29T00:20:42.587Z,44.10
2022-11-29T00:21:14.675Z,40.90
2022-11-29T00:21:46.819Z,36.00
2022-11-29T00:22:18.998Z,39.90
2022-11-29T00:22:51.170Z,43.90
2022-11-29T00:23:23.326Z,46.60
2022-11-29T00:23:55.404Z,49.00
2022-11-29T00:24:27.465Z,45.30
2022-11-29T00:24:59.535Z,45.10
2022-11-29T00:25:31.595Z,45.30
2022-11-29T00:26:03.668Z,47.60
2022-11-29T00:26:35.793Z,48.00
2022-11-29T00:27:07.911Z,48.90
2022-11-29T00:27:40.022Z,42.80
2022-11-29T00:28:12.091Z,40.60
2022-11-29T00:28:44.229Z,44.60
2022-11-29T00:29:16.340Z,44.00
2022-11-29T00:29:48.397Z,50.00
2022-11-29T00:30:20.483Z,41.70
2022-11-29T00:30:52.757Z,35.20
2022-11-29T00:31:24.768Z,38.30
2022-11-29T00:31:56.946Z,38.70
2022-11-29T00:32:29.063Z,46.90
2022-11-29T00:33:01.175Z,47.30
2022-11-29T00:33:33.385Z,41.10
2022-11-29T00:34:05.515Z,39.80
2022-11-29T00:34:37.782Z,42.80
2022-11-29T00:35:10.039Z,44.20
2022-11-29T00:35:41.958Z,43.10
2022-11-29T00:36:14.127Z,42.80
2022-11-29T00:36:46.305Z,46.10
2022-11-29T00:37:18.444Z,45.30
2022-11-29T00:37:50.517Z,42.70
2022-11-29T00:38:22.581Z,48.30
2022-11-29T00:38:54.758Z,44.00
2022-11-29T00:39:26.909Z,33.20
2022-11-29T00:39:59.029Z,41.00
2022-11-29T00:40:31.167Z,43.50
2022-11-29T00:41:03.268Z,41.80
2022-11-29T00:41:35.344Z,49.70
2022-11-29T00:42:07.424Z,45.40
2022-11-29T00:42:39.534Z,42.00
2022-11-29T00:43:11.587Z,41.30
2022-11-29T00:43:43.731Z,41.50
2022-11-29T00:44:20.161Z,42.20
2022-11-29T00:44:47.974Z,39.40
2022-11-29T00:45:20.061Z,41.00
2022-11-29T00:45:52.159Z,46.90
2022-11-29T00:46:24.317Z,38.70
2022-11-29T00:46:56.323Z,35.50
2022-11-29T00:47:28.366Z,37.10
2022-11-29T00:48:00.428Z,53.80
2022-11-29T00:48:32.488Z,69.50
2022-11-29T00:49:04.605Z,49.80
2022-11-29T00:49:36.671Z,40.40
2022-11-29T00:50:08.784Z,41.40
2022-11-29T00:50:40.863Z,44.80
2022-11-29T00:51:12.952Z,49.80
2022-11-29T00:51:45.020Z,53.10
2022-11-29T00:52:17.107Z,50.70
2022-11-29T00:52:49.220Z,51.70
2022-11-29T00:53:21.275Z,43.40
2022-11-29T00:53:53.336Z,39.30
2022-11-29T00:54:25.434Z,37.30
2022-11-29T00:54:57.509Z,44.00
2022-11-29T00:55:29.603Z,48.50
2022-11-29T00:56:01.719Z,43.50
2022-11-29T00:56:33.825Z,38.80
2022-11-29T00:57:05.911Z,48.60
2022-11-29T00:57:38.000Z,59.00
2022-11-29T00:58:10.122Z,49.60
2022-11-29T00:58:42.246Z,43.40
2022-11-29T00:59:14.324Z,46.20
2022-11-29T00:59:46.465Z,41.50
2022-11-29T01:00:18.695Z,37.80
2022-11-29T01:00:50.998Z,43.20
2022-11-29T01:01:23.060Z,38.40
2022-11-29T01:01:55.136Z,48.00
2022-11-29T01:02:27.248Z,53.90
2022-11-29T01:02:59.318Z,44.40
2022-11-29T01:03:31.441Z,39.60
2022-11-29T01:04:03.583Z,47.90
2022-11-29T01:04:35.713Z,45.70
2022-11-29T01:05:07.834Z,39.90
2022-11-29T01:05:39.919Z,42.60
2022-11-29T01:06:12.000Z,43.90
2022-11-29T01:06:44.129Z,39.00
2022-11-29T01:07:16.303Z,41.50
2022-11-29T01:07:48.405Z,41.10
2022-11-29T01:08:20.506Z,42.20
2022-11-29T01:08:52.623Z,39.20
2022-11-29T01:09:24.740Z,45.10
2022-11-29T01:09:56.824Z,45.50
2022-11-29T01:10:28.918Z,52.90
2022-11-29T01:11:01.111Z,51.80
2022-11-29T01:11:33.243Z,42.40
2022-11-29T01:12:05.364Z,44.60
2022-11-29T01:12:37.586Z,44.40
2022-11-29T01:13:09.740Z,38.50
2022-11-29T01:13:41.988Z,45.80
2022-11-29T01:14:14.079Z,44.50
2022-11-29T01:14:46.434Z,34.50
2022-11-29T01:15:18.468Z,38.20
2022-11-29T01:15:50.541Z,44.10
2022-11-29T01:16:22.743Z,43.20
2022-11-29T01:16:54.866Z,45.40
2022-11-29T01:17:26.944Z,38.70
2022-11-29T01:17:59.074Z,33.40
2022-11-29T01:18:31.299Z,36.80
2022-11-29T01:19:03.364Z,48.30
2022-11-29T01:19:35.467Z,46.70
2022-11-29T01:20:07.589Z,40.20
2022-11-29T01:20:39.719Z,42.30
2022-11-29T01:21:11.854Z,38.70
2022-11-29T01:21:44.002Z,40.90
2022-11-29T01:22:16.134Z,41.60
2022-11-29T01:22:48.238Z,37.80
2022-11-29T01:23:20.282Z,43.80
2022-11-29T01:23:52.407Z,48.10
2022-11-29T01:24:24.550Z,41.50
2022-11-29T01:24:56.676Z,32.10
2022-11-29T01:25:28.802Z,31.70
2022-11-29T01:26:00.923Z,32.50
2022-11-29T01:26:33.082Z,32.60
2022-11-29T01:27:05.145Z,36.50
2022-11-29T01:27:37.250Z,42.00
2022-11-29T01:28:09.312Z,41.90
2022-11-29T01:28:41.434Z,36.20
2022-11-29T01:29:13.502Z,32.10
2022-11-29T01:29:45.555Z,31.50
2022-11-29T01:30:17.621Z,36.90
2022-11-29T01:30:49.839Z,37.40
2022-11-29T01:31:21.928Z,32.30
2022-11-29T01:31:54.060Z,35.10
2022-11-29T01:32:26.235Z,35.10
2022-11-29T01:32:58.391Z,36.90
2022-11-29T01:33:30.518Z,42.80
2022-11-29T01:34:02.728Z,43.00
2022-11-29T01:34:34.837Z,40.20
2022-11-29T01:35:06.939Z,37.60
2022-11-29T01:35:39.068Z,35.90
2022-11-29T01:36:11.212Z,40.40
2022-11-29T01:36:43.374Z,40.50
2022-11-29T01:37:15.507Z,44.10
2022-11-29T01:37:47.610Z,45.70
2022-11-29T01:38:19.678Z,38.40
2022-11-29T01:38:51.816Z,31.50
2022-11-29T01:39:23.925Z,32.20
2022-11-29T01:39:56.081Z,37.60
2022-11-29T01:40:28.217Z,39.20
2022-11-29T01:41:00.314Z,35.00
2022-11-29T01:41:32.442Z,37.00
2022-11-29T01:42:04.547Z,38.20
2022-11-29T01:42:36.692Z,35.80
2022-11-29T01:43:08.797Z,33.60
2022-11-29T01:43:40.903Z,38.80
2022-11-29T01:44:12.969Z,41.20
2022-11-29T01:44:45.361Z,36.20
2022-11-29T01:45:17.125Z,39.50
2022-11-29T01:45:49.316Z,37.00
2022-11-29T01:46:21.395Z,41.50
2022-11-29T01:46:53.549Z,46.60
2022-11-29T01:47:25.696Z,45.20
2022-11-29T01:47:57.778Z,55.70
2022-11-29T01:48:29.863Z,52.70
2022-11-29T01:49:02.062Z,40.10
2022-11-29T01:49:34.136Z,37.80
2022-11-29T01:50:06.207Z,38.40
2022-11-29T01:50:38.377Z,39.80
2022-11-29T01:51:10.472Z,44.10
2022-11-29T01:51:42.567Z,45.60
2022-11-29T01:52:14.683Z,41.40
2022-11-29T01:52:46.806Z,45.40
2022-11-29T01:53:18.912Z,47.30
2022-11-29T01:53:51.015Z,44.80
2022-11-29T01:54:23.156Z,36.90
2022-11-29T01:54:55.255Z,42.30
2022-11-29T01:55:27.340Z,51.30
2022-11-29T01:55:59.496Z,44.70
2022-11-29T01:56:31.499Z,45.80
2022-11-29T01:57:03.643Z,47.10
2022-11-29T01:57:35.781Z,51.90
2022-11-29T01:58:07.927Z,63.60
2022-11-29T01:58:40.026Z,71.30
2022-11-29T01:59:12.131Z,72.20
2022-11-29T01:59:44.224Z,58.50
2022-11-29T02:00:16.282Z,61.70
2022-11-29T02:00:48.417Z,57.90
2022-11-29T02:01:20.559Z,53.00
2022-11-29T02:01:52.631Z,46.50
2022-11-29T02:02:24.853Z,45.80
2022-11-29T02:02:56.980Z,49.80
2022-11-29T02:03:29.186Z,61.30
2022-11-29T02:04:01.297Z,68.20
2022-11-29T02:04:33.436Z,59.80
2022-11-29T02:05:05.593Z,50.60
2022-11-29T02:05:37.708Z,45.60
2022-11-29T02:06:09.848Z,43.40
2022-11-29T02:06:41.984Z,53.60
2022-11-29T02:07:14.239Z,61.70
2022-11-29T02:07:46.358Z,55.40
2022-11-29T02:08:18.397Z,61.70
2022-11-29T02:08:50.518Z,49.50
2022-11-29T02:09:22.646Z,45.30
2022-11-29T02:09:54.699Z,42.20
2022-11-29T02:10:26.770Z,46.50
2022-11-29T02:10:58.883Z,56.60
2022-11-29T02:11:30.947Z,50.70
2022-11-29T02:12:03.027Z,44.20
2022-11-29T02:12:35.298Z,42.70
2022-11-29T02:13:07.463Z,47.00
2022-11-29T02:13:39.600Z,48.40
2022-11-29T02:14:11.715Z,52.10
2022-11-29T02:14:44.026Z,46.40
2022-11-29T02:15:15.930Z,42.80
2022-11-29T02:15:48.072Z,50.80
2022-11-29T02:16:20.225Z,59.20
2022-11-29T02:16:56.447Z,59.00
2022-11-29T02:17:24.364Z,59.60
2022-11-29T02:17:56.445Z,55.80
2022-11-29T02:18:28.527Z,45.00
2022-11-29T02:19:00.638Z,49.20
2022-11-29T02:19:32.767Z,49.90
2022-11-29T02:20:04.929Z,44.00
2022-11-29T02:20:37.032Z,49.80
2022-11-29T02:21:09.127Z,50.40
2022-11-29T02:21:41.281Z,54.60
2022-11-29T02:22:13.440Z,55.60
2022-11-29T02:22:45.576Z,44.30
2022-11-29T02:23:17.640Z,42.10
2022-11-29T02:23:49.798Z,44.50
2022-11-29T02:24:21.908Z,42.70
2022-11-29T02:24:54.089Z,44.80
2022-11-29T02:25:26.196Z,45.80
2022-11-29T02:25:58.269Z,59.60
2022-11-29T02:26:30.393Z,63.30
2022-11-29T02:27:02.497Z,51.70
2022-11-29T02:27:34.670Z,48.50
2022-11-29T02:28:06.737Z,47.80
2022-11-29T02:28:38.893Z,51.90
2022-11-29T02:29:11.023Z,45.20
2022-11-29T02:29:43.085Z,48.50
2022-11-29T02:30:15.185Z,58.30
2022-11-29T02:30:47.274Z,52.90
2022-11-29T02:31:19.335Z,51.70
2022-11-29T02:31:51.422Z,52.20
2022-11-29T02:32:23.508Z,55.00
2022-11-29T02:32:55.594Z,62.40
2022-11-29T02:33:27.662Z,58.80
2022-11-29T02:33:59.840Z,47.90
2022-11-29T02:34:32.038Z,51.70
2022-11-29T02:35:04.132Z,49.90
2022-11-29T02:35:36.245Z,53.50
2022-11-29T02:36:08.309Z,51.60
2022-11-29T02:36:40.407Z,53.40
2022-11-29T02:37:12.484Z,61.50
2022-11-29T02:37:44.600Z,64.60
2022-11-29T02:38:16.715Z,60.30
2022-11-29T02:38:48.805Z,55.00
2022-11-29T02:39:20.902Z,55.90
2022-11-29T02:39:53.030Z,55.70
2022-11-29T02:40:25.092Z,52.50
2022-11-29T02:40:57.175Z,51.60
2022-11-29T02:41:29.253Z,82.90
2022-11-29T02:42:01.416Z,86.30
2022-11-29T02:42:33.561Z,54.80
2022-11-29T02:43:05.671Z,49.90
2022-11-29T02:43:37.792Z,51.20
2022-11-29T02:44:09.932Z,54.10
2022-11-29T02:44:42.232Z,57.60
2022-11-29T02:45:14.073Z,59.90
2022-11-29T02:45:46.314Z,57.10
2022-11-29T02:46:18.417Z,44.00
2022-11-29T02:46:50.568Z,46.70
2022-11-29T02:47:22.672Z,50.60
2022-11-29T02:47:54.767Z,56.00
2022-11-29T02:48:26.837Z,56.30
2022-11-29T02:48:59.048Z,45.60
2022-11-29T02:49:31.178Z,53.00
2022-11-29T02:50:03.355Z,57.20
2022-11-29T02:50:35.519Z,50.90
2022-11-29T02:51:07.715Z,50.80
2022-11-29T02:51:39.877Z,62.40
2022-11-29T02:52:12.006Z,52.20
2022-11-29T02:52:44.242Z,53.10
2022-11-29T02:53:16.389Z,70.60
2022-11-29T02:53:48.559Z,80.20
2022-11-29T02:54:20.726Z,65.50
2022-11-29T02:54:52.764Z,55.70
2022-11-29T02:55:24.956Z,57.10
2022-11-29T02:55:57.051Z,72.10
2022-11-29T02:56:29.165Z,67.10
2022-11-29T02:57:01.286Z,56.60
2022-11-29T02:57:33.364Z,66.30
2022-11-29T02:58:05.543Z,61.10
2022-11-29T02:58:37.696Z,51.40
2022-11-29T02:59:09.830Z,61.50
2022-11-29T02:59:42.072Z,62.00
2022-11-29T03:00:14.235Z,57.60
2022-11-29T03:00:46.365Z,46.50
2022-11-29T03:01:18.676Z,43.30
2022-11-29T03:01:50.659Z,46.70
2022-11-29T03:02:22.746Z,55.50
2022-11-29T03:02:55.006Z,56.30
2022-11-29T03:03:27.093Z,53.20
2022-11-29T03:03:59.172Z,59.40
2022-11-29T03:04:31.251Z,62.70
2022-11-29T03:05:03.324Z,59.40
2022-11-29T03:05:35.439Z,50.90
2022-11-29T03:06:07.569Z,52.10
2022-11-29T03:06:39.699Z,56.90
2022-11-29T03:07:11.913Z,55.90
2022-11-29T03:07:44.240Z,52.50
2022-11-29T03:08:16.323Z,48.20
2022-11-29T03:08:48.518Z,50.10
2022-11-29T03:09:20.631Z,53.90
2022-11-29T03:09:52.750Z,48.90
2022-11-29T03:10:24.814Z,51.50
2022-11-29T03:10:56.947Z,52.30
2022-11-29T03:11:29.054Z,66.50
2022-11-29T03:12:01.201Z,63.20
2022-11-29T03:12:33.324Z,50.40
2022-11-29T03:13:05.515Z,49.40
2022-11-29T03:13:37.655Z,51.00
2022-11-29T03:14:09.792Z,53.60
2022-11-29T03:14:42.336Z,53.60
2022-11-29T03:15:14.154Z,45.50
2022-11-29T03:15:46.328Z,51.60
2022-11-29T03:16:18.390Z,47.30
2022-11-29T03:16:50.464Z,53.90
2022-11-29T03:17:22.605Z,56.70
2022-11-29T03:17:54.782Z,44.30
2022-11-29T03:18:26.922Z,41.80
2022-11-29T03:18:59.032Z,46.70
2022-11-29T03:19:31.090Z,55.50
2022-11-29T03:20:03.229Z,55.00
2022-11-29T03:20:35.307Z,46.90
2022-11-29T03:21:07.506Z,51.70
2022-11-29T03:21:39.620Z,59.30
2022-11-29T03:22:11.718Z,50.70
2022-11-29T03:22:43.850Z,48.20
2022-11-29T03:23:15.946Z,52.30
2022-11-29T03:23:48.188Z,57.60
2022-11-29T03:24:20.422Z,59.20
2022-11-29T03:24:52.599Z,54.60
2022-11-29T03:25:24.671Z,50.90
2022-11-29T03:25:56.779Z,49.80
2022-11-29T03:26:28.890Z,48.70
2022-11-29T03:27:00.995Z,48.70
2022-11-29T03:27:33.182Z,50.90
2022-11-29T03:28:05.319Z,47.50
2022-11-29T03:28:37.493Z,43.70
2022-11-29T03:29:09.548Z,48.30
2022-11-29T03:29:41.614Z,51.30
2022-11-29T03:30:13.779Z,48.60
2022-11-29T03:30:45.971Z,51.10
2022-11-29T03:31:18.098Z,55.40
2022-11-29T03:31:50.194Z,58.50
2022-11-29T03:32:22.310Z,54.90
2022-11-29T03:32:54.515Z,47.80
2022-11-29T03:33:26.642Z,45.70
2022-11-29T03:33:58.740Z,47.30
2022-11-29T03:34:30.869Z,40.10
2022-11-29T03:35:02.986Z,40.60
2022-11-29T03:35:35.097Z,55.40
2022-11-29T03:36:07.169Z,64.20
2022-11-29T03:36:39.342Z,50.70
2022-11-29T03:37:11.550Z,53.80
2022-11-29T03:37:43.738Z,54.10
2022-11-29T03:38:15.871Z,46.40
2022-11-29T03:38:47.996Z,44.80
2022-11-29T03:39:20.094Z,47.00
2022-11-29T03:39:52.152Z,48.70
2022-11-29T03:40:24.313Z,48.90
2022-11-29T03:40:56.575Z,51.30
2022-11-29T03:41:28.683Z,51.00
2022-11-29T03:42:00.777Z,44.70
2022-11-29T03:42:32.967Z,44.40
2022-11-29T03:43:05.083Z,49.10
2022-11-29T03:43:37.259Z,53.10
2022-11-29T03:44:09.371Z,52.50
2022-11-29T03:44:41.560Z,49.90
2022-11-29T03:45:13.600Z,46.30
2022-11-29T03:45:45.682Z,43.00
2022-11-29T03:46:17.864Z,46.00
2022-11-29T03:46:49.913Z,44.40
2022-11-29T03:47:21.982Z,49.10
2022-11-29T03:47:54.075Z,54.70
2022-11-29T03:48:26.169Z,59.40
2022-11-29T03:48:58.280Z,54.30
2022-11-29T03:49:30.423Z,49.80
2022-11-29T03:50:02.556Z,54.80
2022-11-29T03:50:34.715Z,50.00
2022-11-29T03:51:06.857Z,51.00
2022-11-29T03:51:39.022Z,52.80
2022-11-29T03:52:11.171Z,52.40
2022-11-29T03:52:43.258Z,45.20
2022-11-29T03:53:15.367Z,48.40
2022-11-29T03:53:47.442Z,49.90
2022-11-29T03:54:19.540Z,50.30
2022-11-29T03:54:51.674Z,50.10
2022-11-29T03:55:23.843Z,50.60
2022-11-29T03:55:55.959Z,54.10
2022-11-29T03:56:28.089Z,53.80
2022-11-29T03:57:00.259Z,48.50
2022-11-29T03:57:32.352Z,38.80
2022-11-29T03:58:04.429Z,38.40
2022-11-29T03:58:36.623Z,48.40
2022-11-29T03:59:08.769Z,69.80
2022-11-29T03:59:40.981Z,71.80
2022-11-29T04:00:13.181Z,53.50
2022-11-29T04:00:45.324Z,47.40
2022-11-29T04:01:17.487Z,56.60
2022-11-29T04:01:49.568Z,55.30
2022-11-29T04:02:21.658Z,43.70
2022-11-29T04:02:53.789Z,39.60
2022-11-29T04:03:25.849Z,50.30
2022-11-29T04:03:57.930Z,62.90
2022-11-29T04:04:30.041Z,60.30
2022-11-29T04:05:02.239Z,54.60
2022-11-29T04:05:34.398Z,58.30
2022-11-29T04:06:06.483Z,53.20
2022-11-29T04:06:38.633Z,45.70
2022-11-29T04:07:10.757Z,49.60
2022-11-29T04:07:42.905Z,53.00
2022-11-29T04:08:14.958Z,61.90
2022-11-29T04:08:47.017Z,55.70
2022-11-29T04:09:19.151Z,40.60
2022-11-29T04:09:51.267Z,49.00
2022-11-29T04:10:23.445Z,53.70
2022-11-29T04:10:55.518Z,55.40
2022-11-29T04:11:27.687Z,64.00
2022-11-29T04:11:59.836Z,52.40
2022-11-29T04:12:31.986Z,52.60
2022-11-29T04:13:04.061Z,46.20
2022-11-29T04:13:36.161Z,46.50
2022-11-29T04:14:08.266Z,54.90
2022-11-29T04:14:40.356Z,56.30
2022-11-29T04:15:15.455Z,51.60
2022-11-29T04:15:44.587Z,53.20
2022-11-29T04:16:16.692Z,54.10
2022-11-29T04:16:48.764Z,50.80
2022-11-29T04:17:20.890Z,51.20
2022-11-29T04:17:52.990Z,64.80
2022-11-29T04:18:25.097Z,67.10
2022-11-29T04:18:57.245Z,54.10
2022-11-29T04:19:29.365Z,75.30
2022-11-29T04:20:01.643Z,73.50
2022-11-29T04:20:38.800Z,54.10
2022-11-29T04:21:06.135Z,55.10
2022-11-29T04:21:38.276Z,50.90
2022-11-29T04:22:10.345Z,47.50
2022-11-29T04:22:42.580Z,47.10
2022-11-29T04:23:14.693Z,46.10
2022-11-29T04:23:46.784Z,50.60
2022-11-29T04:24:18.932Z,52.70
2022-11-29T04:24:51.055Z,51.80
2022-11-29T04:25:23.205Z,56.00
2022-11-29T04:25:55.308Z,60.10
2022-11-29T04:26:30.855Z,61.00
2022-11-29T04:26:59.630Z,56.40
2022-11-29T04:27:31.739Z,56.80
2022-11-29T04:28:03.898Z,54.90
2022-11-29T04:28:36.011Z,47.00
2022-11-29T04:29:08.130Z,64.90
2022-11-29T04:29:40.245Z,64.10
2022-11-29T04:30:12.316Z,50.90
2022-11-29T04:30:44.397Z,56.70
2022-11-29T04:31:16.525Z,57.50
2022-11-29T04:31:48.589Z,55.50
2022-11-29T04:32:20.764Z,49.20
2022-11-29T04:32:52.882Z,47.50
2022-11-29T04:33:24.956Z,53.50
2022-11-29T04:33:57.103Z,45.30
2022-11-29T04:34:29.284Z,49.90
2022-11-29T04:35:01.375Z,52.10
2022-11-29T04:35:33.548Z,56.40
2022-11-29T04:36:05.672Z,52.10
2022-11-29T04:36:37.825Z,57.10
2022-11-29T04:37:09.996Z,61.40
2022-11-29T04:37:42.055Z,58.70
2022-11-29T04:38:14.197Z,57.00
2022-11-29T04:38:46.306Z,50.50
2022-11-29T04:39:18.433Z,46.80
2022-11-29T04:39:50.673Z,46.40
2022-11-29T04:40:22.789Z,44.30
2022-11-29T04:40:54.942Z,54.70
2022-11-29T04:41:27.072Z,60.80
2022-11-29T04:41:59.204Z,53.00
2022-11-29T04:42:31.380Z,45.80
2022-11-29T04:43:03.551Z,51.70
2022-11-29T04:43:35.757Z,71.30
2022-11-29T04:44:07.889Z,67.70
2022-11-29T04:44:40.019Z,50.40
2022-11-29T04:45:12.203Z,52.70
2022-11-29T04:45:44.358Z,53.40
2022-11-29T04:46:16.488Z,55.40
2022-11-29T04:46:48.651Z,58.00
2022-11-29T04:47:20.718Z,55.70
2022-11-29T04:47:52.858Z,46.90
2022-11-29T04:48:24.958Z,47.90
2022-11-29T04:48:57.068Z,51.80
2022-11-29T04:49:29.149Z,57.20
2022-11-29T04:50:01.270Z,65.70
2022-11-29T04:50:33.338Z,61.20
2022-11-29T04:51:05.406Z,57.40
2022-11-29T04:51:37.575Z,56.70
2022-11-29T04:52:09.700Z,56.40
2022-11-29T04:52:41.832Z,62.50
2022-11-29T04:53:13.891Z,59.70
2022-11-29T04:53:45.971Z,54.00
2022-11-29T04:54:18.115Z,57.40
2022-11-29T04:54:50.315Z,67.40
2022-11-29T04:55:27.825Z,57.80
2022-11-29T04:55:54.507Z,56.60
2022-11-29T04:56:26.665Z,59.60
2022-11-29T04:56:58.734Z,48.50
2022-11-29T04:57:30.857Z,54.30
2022-11-29T04:58:02.986Z,51.70
2022-11-29T04:58:35.147Z,52.60
2022-11-29T04:59:07.256Z,52.60
2022-11-29T04:59:39.330Z,46.90
2022-11-29T05:00:11.461Z,50.10
2022-11-29T05:00:43.596Z,60.40
2022-11-29T05:01:15.736Z,59.10
2022-11-29T05:01:47.887Z,52.50
2022-11-29T05:02:20.039Z,63.80
2022-11-29T05:02:52.202Z,64.80
2022-11-29T05:03:24.304Z,58.10
2022-11-29T05:03:57.349Z,58.10
2022-11-29T05:04:28.634Z,65.20
2022-11-29T05:05:00.775Z,64.00
2022-11-29T05:05:32.977Z,65.40
2022-11-29T05:06:05.151Z,56.50
2022-11-29T05:06:37.293Z,60.40
2022-11-29T05:07:09.413Z,62.50
2022-11-29T05:07:41.513Z,52.10
2022-11-29T05:08:13.717Z,45.60
2022-11-29T05:08:45.867Z,52.60
2022-11-29T05:09:18.003Z,54.10
2022-11-29T05:09:50.171Z,56.10
2022-11-29T05:10:22.391Z,60.80
2022-11-29T05:10:54.485Z,51.70
2022-11-29T05:11:27.014Z,50.80
2022-11-29T05:11:58.591Z,49.20
2022-11-29T05:12:30.722Z,48.30
2022-11-29T05:13:02.885Z,51.60
2022-11-29T05:13:34.979Z,54.80
2022-11-29T05:14:07.067Z,50.70
2022-11-29T05:14:39.167Z,43.50
2022-11-29T05:15:11.254Z,49.60
2022-11-29T05:15:43.427Z,54.80
2022-11-29T05:16:15.714Z,58.70
2022-11-29T05:16:47.757Z,55.30
2022-11-29T05:17:19.870Z,46.10
2022-11-29T05:17:51.945Z,49.20
2022-11-29T05:18:23.999Z,51.50
2022-11-29T05:18:56.208Z,60.20
2022-11-29T05:19:28.330Z,56.90
2022-11-29T05:20:00.576Z,50.70
2022-11-29T05:20:32.677Z,47.40
2022-11-29T05:21:04.772Z,41.20
2022-11-29T05:21:36.865Z,48.40
2022-11-29T05:22:08.951Z,50.00
2022-11-29T05:22:41.074Z,46.80
2022-11-29T05:23:13.196Z,47.80
2022-11-29T05:23:45.359Z,44.30
2022-11-29T05:24:17.479Z,42.10
2022-11-29T05:24:49.576Z,50.60
2022-11-29T05:25:21.745Z,53.00
2022-11-29T05:25:53.895Z,47.80
2022-11-29T05:26:26.010Z,55.00
2022-11-29T05:26:58.157Z,54.90
2022-11-29T05:27:30.309Z,42.60
2022-11-29T05:28:05.656Z,50.00
2022-11-29T05:28:34.596Z,57.00
2022-11-29T05:29:06.706Z,55.60
2022-11-29T05:29:38.870Z,53.00
2022-11-29T05:30:10.958Z,55.10
2022-11-29T05:30:43.045Z,50.70
2022-11-29T05:31:15.230Z,49.10
2022-11-29T05:31:47.322Z,49.50
2022-11-29T05:32:19.457Z,46.40
2022-11-29T05:32:51.676Z,43.70
2022-11-29T05:33:23.991Z,51.70
2022-11-29T05:33:56.074Z,46.30
2022-11-29T05:34:33.247Z,38.50
2022-11-29T05:35:00.241Z,38.50
2022-11-29T05:35:32.320Z,43.30
2022-11-29T05:36:04.391Z,48.80
2022-11-29T05:36:36.579Z,43.60
2022-11-29T05:37:08.720Z,41.30
2022-11-29T05:37:40.849Z,51.50
2022-11-29T05:38:12.974Z,55.90
2022-11-29T05:38:45.061Z,59.70
2022-11-29T05:39:17.162Z,56.60
2022-11-29T05:39:49.310Z,54.70
2022-11-29T05:40:21.452Z,58.40
2022-11-29T05:40:53.623Z,58.30
2022-11-29T05:41:25.739Z,59.20
2022-11-29T05:41:57.889Z,56.60
2022-11-29T05:42:30.037Z,61.70
2022-11-29T05:43:02.130Z,58.80
2022-11-29T05:43:34.280Z,46.50
2022-11-29T05:44:06.391Z,42.30
2022-11-29T05:44:38.506Z,40.40
2022-11-29T05:45:10.581Z,48.60
2022-11-29T05:45:42.724Z,47.00
2022-11-29T05:46:14.894Z,41.30
2022-11-29T05:46:47.041Z,54.30
2022-11-29T05:47:19.107Z,54.20
2022-11-29T05:47:51.344Z,60.00
2022-11-29T05:48:23.475Z,56.70
2022-11-29T05:48:55.599Z,46.60
2022-11-29T05:49:27.707Z,50.10
2022-11-29T05:49:59.797Z,49.40
2022-11-29T05:50:31.875Z,46.80
2022-11-29T05:51:03.984Z,46.70
2022-11-29T05:51:36.114Z,53.00
2022-11-29T05:52:08.219Z,46.90
2022-11-29T05:52:40.365Z,48.60
2022-11-29T05:53:12.476Z,49.90
2022-11-29T05:53:44.606Z,45.00
2022-11-29T05:54:16.764Z,44.70
2022-11-29T05:54:48.826Z,44.40
2022-11-29T05:55:20.894Z,51.00
2022-11-29T05:55:53.018Z,49.60
2022-11-29T05:56:25.169Z,47.30
2022-11-29T05:56:57.294Z,51.60
2022-11-29T05:57:29.387Z,54.90
2022-11-29T05:58:01.520Z,52.70
2022-11-29T05:58:33.696Z,56.60
2022-11-29T05:59:05.811Z,55.30
2022-11-29T05:59:37.936Z,41.90
2022-11-29T06:00:10.056Z,42.40
2022-11-29T06:00:42.233Z,50.50
2022-11-29T06:01:14.374Z,64.70
2022-11-29T06:01:46.566Z,52.60
2022-11-29T06:02:18.738Z,50.40
2022-11-29T06:02:50.932Z,57.00
2022-11-29T06:03:23.014Z,59.30
2022-11-29T06:03:55.117Z,58.70
2022-11-29T06:04:27.184Z,53.50
2022-11-29T06:04:59.262Z,53.70
2022-11-29T06:05:31.376Z,56.40
2022-11-29T06:06:03.426Z,44.60
2022-11-29T06:06:35.513Z,43.70
2022-11-29T06:07:07.665Z,44.50
2022-11-29T06:07:39.800Z,48.10
2022-11-29T06:08:11.921Z,50.50
2022-11-29T06:08:44.059Z,45.70
2022-11-29T06:09:16.160Z,52.90
2022-11-29T06:09:48.252Z,51.70
2022-11-29T06:10:20.325Z,42.50
2022-11-29T06:10:52.424Z,53.50
2022-11-29T06:11:24.526Z,56.50
2022-11-29T06:11:56.660Z,57.80
2022-11-29T06:12:28.795Z,50.50
2022-11-29T06:13:00.929Z,46.20
2022-11-29T06:13:33.054Z,45.20
2022-11-29T06:14:05.174Z,50.00
2022-11-29T06:14:37.259Z,50.70
2022-11-29T06:15:09.355Z,57.30
2022-11-29T06:15:41.444Z,61.40
2022-11-29T06:16:13.537Z,60.30
2022-11-29T06:16:45.572Z,56.60
2022-11-29T06:17:17.642Z,55.80
2022-11-29T06:17:49.802Z,52.00
2022-11-29T06:18:29.030Z,50.90
2022-11-29T06:19:01.208Z,58.00
2022-11-29T06:19:33.318Z,55.90
2022-11-29T06:20:05.445Z,54.80
2022-11-29T06:20:37.603Z,52.70
2022-11-29T06:21:09.850Z,47.00
2022-11-29T06:21:41.912Z,53.80
2022-11-29T06:22:14.050Z,56.80
2022-11-29T06:22:46.246Z,49.90
2022-11-29T06:23:18.412Z,54.20
2022-11-29T06:23:50.990Z,50.00
2022-11-29T06:24:25.909Z,48.90
2022-11-29T06:24:55.322Z,50.50
2022-11-29T06:25:27.422Z,44.60
2022-11-29T06:26:03.609Z,48.40
2022-11-29T06:26:32.647Z,48.80
2022-11-29T06:27:04.825Z,44.80
2022-11-29T06:27:37.083Z,50.20
2022-11-29T06:28:09.171Z,55.70
2022-11-29T06:28:41.458Z,45.00
2022-11-29T06:29:13.627Z,45.70
2022-11-29T06:29:45.959Z,44.10
2022-11-29T06:30:18.098Z,39.50
2022-11-29T06:30:57.287Z,47.10
2022-11-29T06:31:29.464Z,46.80
2022-11-29T06:32:01.522Z,41.90
2022-11-29T06:32:33.654Z,45.10
2022-11-29T06:33:05.812Z,52.40
2022-11-29T06:33:37.914Z,56.80
2022-11-29T06:34:10.000Z,57.90
2022-11-29T06:34:42.159Z,52.40
2022-11-29T06:35:14.287Z,52.10
2022-11-29T06:35:46.485Z,58.50
2022-11-29T06:36:18.561Z,65.30
2022-11-29T06:36:50.662Z,61.70
2022-11-29T06:37:22.742Z,50.50
2022-11-29T06:37:54.861Z,60.10
2022-11-29T06:38:26.958Z,79.40
2022-11-29T06:38:59.096Z,72.20
2022-11-29T06:39:31.238Z,57.40
2022-11-29T06:40:03.331Z,65.90
2022-11-29T06:40:35.454Z,68.60
2022-11-29T06:41:07.548Z,47.40
2022-11-29T06:41:39.714Z,49.30
2022-11-29T06:42:11.830Z,44.40
2022-11-29T06:42:43.982Z,50.40
2022-11-29T06:43:16.104Z,52.40
2022-11-29T06:43:48.203Z,58.80
2022-11-29T06:44:20.295Z,58.40
2022-11-29T06:44:52.517Z,41.90
2022-11-29T06:45:24.597Z,41.30
2022-11-29T06:45:56.756Z,37.40
2022-11-29T06:46:28.947Z,47.20
2022-11-29T06:47:01.087Z,61.50
2022-11-29T06:47:33.218Z,53.80
2022-11-29T06:48:05.338Z,49.80
2022-11-29T06:48:37.427Z,53.20
2022-11-29T06:49:09.507Z,52.70
2022-11-29T06:49:41.801Z,64.20
2022-11-29T06:50:13.935Z,62.20
2022-11-29T06:50:46.074Z,55.20
2022-11-29T06:51:18.155Z,55.90
2022-11-29T06:51:50.244Z,56.40
2022-11-29T06:52:22.333Z,58.70
2022-11-29T06:52:54.435Z,57.30
2022-11-29T06:53:26.557Z,46.90
2022-11-29T06:53:58.731Z,48.90